Time;durP1;ratioP1;P1;durP2;ratioP2;P2;SDS_P1;SDS_P2;PMS_P1;PMS_P2;Temp;Humidity;BMP_temperature;BMP_pressure;BME280_temperature;BME280_humidity;BME280_pressure;Samples;Min_cycle;Max_cycle;Signal;HPM_P1;HPM_P2
2023/04/02 00:02:30;;;;;;;0.23;0.23;;;;;;;;;;5091436;28;20198;-60
2023/04/02 00:05:16;;;;;;;1.20;0.30;;;;;;;;;;5091372;28;20237;-61
2023/04/02 00:07:48;;;;;;;0.20;0.20;;;;;;;;;;5091440;28;20294;-61
2023/04/02 00:10:25;;;;;;;0.60;0.30;;;;;;;;;;5091022;28;20205;-61
2023/04/02 00:13:06;;;;;;;0.20;0.20;;;;;;;;;;5091373;28;20202;-61
2023/04/02 00:15:34;;;;;;;0.83;0.30;;;;;;;;;;5091873;28;20418;-61
2023/04/02 00:18:01;;;;;;;2.40;0.20;;;;;;;;;;5089975;28;20217;-61
2023/04/02 00:20:31;;;;;;;0.20;0.20;;;;;;;;;;5089032;28;20928;-61
2023/04/02 00:22:59;;;;;;;0.40;0.40;;;;;;;;;;5090067;28;20241;-61
2023/04/02 00:25:27;;;;;;;0.40;0.40;;;;;;;;;;5090043;28;20198;-61
2023/04/02 00:27:55;;;;;;;0.30;0.30;;;;;;;;;;5090363;28;20236;-61
2023/04/02 00:30:22;;;;;;;0.40;0.27;;;;;;;;;;5090425;28;20222;-61
2023/04/02 00:32:49;;;;;;;0.30;0.30;;;;;;;;;;5089815;28;20206;-61
2023/04/02 00:35:19;;;;;;;0.20;0.20;;;;;;;;;;5090445;28;20206;-61
2023/04/02 00:37:46;;;;;;;0.20;0.20;;;;;;;;;;5089529;28;20675;-61
2023/04/02 00:40:19;;;;;;;3.40;0.30;;;;;;;;;;5090141;28;20547;-61
2023/04/02 00:42:47;;;;;;;0.50;0.50;;;;;;;;;;5089613;28;20567;-61
2023/04/02 00:45:18;;;;;;;0.30;0.30;;;;;;;;;;5090500;28;20262;-61
2023/04/02 00:47:45;;;;;;;0.47;0.47;;;;;;;;;;5089602;28;20684;-61
2023/04/02 00:50:20;;;;;;;0.37;0.37;;;;;;;;;;5090116;28;20672;-61
2023/04/02 00:52:49;;;;;;;0.50;0.50;;;;;;;;;;5089697;28;20194;-61
2023/04/02 00:55:20;;;;;;;0.50;0.50;;;;;;;;;;5089752;28;20202;-62
2023/04/02 00:57:48;;;;;;;0.30;0.30;;;;;;;;;;5088774;28;20583;-61
2023/04/02 01:00:20;;;;;;;0.53;0.53;;;;;;;;;;5083626;28;20234;-61
2023/04/02 01:03:03;;;;;;;0.60;0.60;;;;;;;;;;5086837;28;20198;-61
2023/04/02 01:05:34;;;;;;;0.63;0.60;;;;;;;;;;5087395;28;20267;-61
2023/04/02 01:08:06;;;;;;;0.40;0.40;;;;;;;;;;5087395;28;20194;-61
2023/04/02 01:10:43;;;;;;;0.63;0.50;;;;;;;;;;5089765;28;20764;-62
2023/04/02 01:13:17;;;;;;;0.50;0.50;;;;;;;;;;5089359;28;20210;-60
2023/04/02 01:15:45;;;;;;;0.57;0.57;;;;;;;;;;5089243;28;20202;-60
2023/04/02 01:18:30;;;;;;;0.83;0.50;;;;;;;;;;5089042;28;20225;-60
2023/04/02 01:21:14;;;;;;;0.50;0.50;;;;;;;;;;5088881;28;20230;-61
2023/04/02 01:23:51;;;;;;;0.77;0.70;;;;;;;;;;5078258;28;20238;-61
2023/04/02 01:26:26;;;;;;;0.40;0.40;;;;;;;;;;5089790;28;20240;-61
2023/04/02 01:29:00;;;;;;;0.60;0.60;;;;;;;;;;5089805;28;20202;-60
2023/04/02 01:31:29;;;;;;;3.43;0.70;;;;;;;;;;5089430;28;20209;-60
2023/04/02 01:33:56;;;;;;;0.67;0.67;;;;;;;;;;5089474;28;20202;-61
2023/04/02 01:36:27;;;;;;;0.60;0.60;;;;;;;;;;5089940;28;20316;-60
2023/04/02 01:38:57;;;;;;;0.67;0.67;;;;;;;;;;5089398;28;20206;-61
2023/04/02 01:41:27;;;;;;;2.53;0.83;;;;;;;;;;5089751;28;20226;-60
2023/04/02 01:43:56;;;;;;;0.53;0.53;;;;;;;;;;5088565;28;20832;-60
2023/04/02 01:46:28;;;;;;;3.13;0.83;;;;;;;;;;5089589;28;20465;-60
2023/04/02 01:48:56;;;;;;;0.50;0.50;;;;;;;;;;5089404;28;20207;-60
2023/04/02 01:51:26;;;;;;;1.70;0.53;;;;;;;;;;5089316;28;20228;-60
2023/04/02 01:53:54;;;;;;;0.80;0.80;;;;;;;;;;5087654;28;20606;-60
2023/04/02 01:56:21;;;;;;;0.50;0.50;;;;;;;;;;5085687;28;20865;-60
2023/04/02 01:58:49;;;;;;;3.30;0.80;;;;;;;;;;5089421;28;20238;-60
2023/04/02 02:01:17;;;;;;;1.60;0.50;;;;;;;;;;5088766;28;20916;-60
2023/04/02 02:03:46;;;;;;;0.40;0.40;;;;;;;;;;5088384;28;20202;-60
2023/04/02 02:06:14;;;;;;;0.70;0.30;;;;;;;;;;5089069;28;20202;-60
2023/04/02 02:08:45;;;;;;;1.90;0.63;;;;;;;;;;5089028;28;20206;-60
2023/04/02 02:11:15;;;;;;;0.50;0.50;;;;;;;;;;5089147;28;20198;-60
2023/04/02 02:13:46;;;;;;;0.47;0.47;;;;;;;;;;5088884;28;20680;-60
2023/04/02 02:16:16;;;;;;;0.70;0.70;;;;;;;;;;5089195;28;20206;-60
2023/04/02 02:18:44;;;;;;;0.60;0.60;;;;;;;;;;5089132;28;20252;-60
2023/04/02 02:21:16;;;;;;;1.63;0.50;;;;;;;;;;5088873;28;20265;-61
2023/04/02 02:23:43;;;;;;;0.57;0.57;;;;;;;;;;5088626;28;20253;-60
2023/04/02 02:26:12;;;;;;;0.50;0.50;;;;;;;;;;5088905;28;20209;-60
2023/04/02 02:28:40;;;;;;;1.70;0.40;;;;;;;;;;5089108;28;20198;-60
2023/04/02 02:31:08;;;;;;;2.60;0.60;;;;;;;;;;5088490;28;20194;-60
2023/04/02 02:33:38;;;;;;;1.93;0.50;;;;;;;;;;5089292;28;20215;-60
2023/04/02 02:36:06;;;;;;;0.70;0.33;;;;;;;;;;5088209;28;20209;-60
2023/04/02 02:38:44;;;;;;;0.40;0.40;;;;;;;;;;5089168;28;20236;-60
2023/04/02 02:41:14;;;;;;;0.30;0.30;;;;;;;;;;5076965;28;20214;-60
2023/04/02 02:43:44;;;;;;;0.30;0.30;;;;;;;;;;5090239;28;20206;-60
2023/04/02 02:46:14;;;;;;;0.50;0.50;;;;;;;;;;5073526;28;20207;-60
2023/04/02 02:48:42;;;;;;;0.43;0.43;;;;;;;;;;5080558;28;20205;-61
2023/04/02 02:51:12;;;;;;;0.50;0.40;;;;;;;;;;5092101;28;20198;-60
2023/04/02 02:53:48;;;;;;;0.47;0.47;;;;;;;;;;5092608;28;20206;-61
2023/04/02 02:56:16;;;;;;;0.40;0.40;;;;;;;;;;5092433;28;20206;-61
2023/04/02 02:58:43;;;;;;;0.77;0.77;;;;;;;;;;5092293;28;20573;-60
2023/04/02 03:01:10;;;;;;;0.90;0.90;;;;;;;;;;5072695;28;20246;-62
2023/04/02 03:03:37;;;;;;;0.57;0.57;;;;;;;;;;5085271;28;20675;-60
2023/04/02 03:06:06;;;;;;;1.03;0.60;;;;;;;;;;5092844;28;20862;-60
2023/04/02 03:08:35;;;;;;;2.63;0.70;;;;;;;;;;5092193;28;20202;-61
2023/04/02 03:11:07;;;;;;;0.50;0.50;;;;;;;;;;5093035;28;20198;-60
2023/04/02 03:13:34;;;;;;;0.60;0.60;;;;;;;;;;5092098;28;20207;-61
2023/04/02 03:16:04;;;;;;;0.70;0.70;;;;;;;;;;5092915;28;20211;-61
2023/04/02 03:18:38;;;;;;;0.40;0.40;;;;;;;;;;5091848;28;20210;-61
2023/04/02 03:21:10;;;;;;;0.70;0.70;;;;;;;;;;5092485;28;20238;-61
2023/04/02 03:23:39;;;;;;;0.73;0.70;;;;;;;;;;5091979;28;20240;-61
2023/04/02 03:26:08;;;;;;;1.00;1.00;;;;;;;;;;5092405;28;20208;-61
2023/04/02 03:28:39;;;;;;;1.80;1.00;;;;;;;;;;5091982;28;20210;-61
2023/04/02 03:31:09;;;;;;;0.80;0.80;;;;;;;;;;5092281;28;20605;-60
2023/04/02 03:33:38;;;;;;;1.00;1.00;;;;;;;;;;5091687;28;20206;-60
2023/04/02 03:36:11;;;;;;;1.07;1.00;;;;;;;;;;5092194;28;20206;-61
2023/04/02 03:38:42;;;;;;;0.67;0.67;;;;;;;;;;5091551;28;20518;-60
2023/04/02 03:41:14;;;;;;;0.90;0.90;;;;;;;;;;5092240;28;20226;-60
2023/04/02 03:43:44;;;;;;;1.00;1.00;;;;;;;;;;5091367;28;20212;-61
2023/04/02 03:46:17;;;;;;;1.20;1.20;;;;;;;;;;5092333;28;20597;-60
2023/04/02 03:48:46;;;;;;;0.83;0.83;;;;;;;;;;5091343;28;20238;-61
2023/04/02 03:51:15;;;;;;;1.00;1.00;;;;;;;;;;5091516;28;20206;-61
2023/04/02 03:53:43;;;;;;;0.80;0.80;;;;;;;;;;5091592;28;20361;-61
2023/04/02 03:56:13;;;;;;;1.33;0.90;;;;;;;;;;5091519;28;20210;-62
2023/04/02 03:58:43;;;;;;;0.90;0.90;;;;;;;;;;5091263;28;20215;-62
2023/04/02 04:01:16;;;;;;;0.97;0.97;;;;;;;;;;5091493;28;20233;-61
2023/04/02 04:03:45;;;;;;;3.30;0.97;;;;;;;;;;5091434;28;20298;-62
2023/04/02 04:06:14;;;;;;;0.80;0.80;;;;;;;;;;5091636;28;20241;-60
2023/04/02 04:08:43;;;;;;;0.80;0.80;;;;;;;;;;5090995;28;20217;-61
2023/04/02 04:11:13;;;;;;;2.60;0.93;;;;;;;;;;5091259;28;20569;-61
2023/04/02 04:13:48;;;;;;;0.80;0.80;;;;;;;;;;5091115;28;20203;-60
2023/04/02 04:16:17;;;;;;;0.93;0.93;;;;;;;;;;5091680;28;20207;-62
2023/04/02 04:18:47;;;;;;;1.00;0.90;;;;;;;;;;5090419;28;20307;-61
2023/04/02 04:21:16;;;;;;;3.57;1.20;;;;;;;;;;5091282;28;20241;-61
2023/04/02 04:23:49;;;;;;;3.13;1.10;;;;;;;;;;5090693;28;20245;-60
2023/04/02 04:26:19;;;;;;;1.33;0.70;;;;;;;;;;5090923;28;20195;-61
2023/04/02 04:28:57;;;;;;;0.83;0.83;;;;;;;;;;5091082;28;20198;-60
2023/04/02 04:31:29;;;;;;;1.00;1.00;;;;;;;;;;5091158;28;20233;-61
2023/04/02 04:34:03;;;;;;;1.07;1.07;;;;;;;;;;5087215;28;20203;-61
2023/04/02 04:36:32;;;;;;;1.07;1.07;;;;;;;;;;5091019;28;20680;-61
2023/04/02 04:39:00;;;;;;;0.83;0.83;;;;;;;;;;5090156;28;20222;-61
2023/04/02 04:41:29;;;;;;;0.70;0.70;;;;;;;;;;5090733;28;20229;-60
2023/04/02 04:44:01;;;;;;;0.73;0.73;;;;;;;;;;5090421;28;20213;-61
2023/04/02 04:46:31;;;;;;;0.90;0.90;;;;;;;;;;5090255;28;20202;-61
2023/04/02 04:49:00;;;;;;;0.70;0.70;;;;;;;;;;5089740;28;20207;-61
2023/04/02 04:51:30;;;;;;;2.30;0.70;;;;;;;;;;5089766;28;20203;-60
2023/04/02 04:53:57;;;;;;;0.73;0.73;;;;;;;;;;5089535;28;20206;-61
2023/04/02 04:56:25;;;;;;;6.90;1.00;;;;;;;;;;5089904;28;20209;-61
2023/04/02 04:58:54;;;;;;;0.80;0.80;;;;;;;;;;5089598;28;20598;-61
2023/04/02 05:01:25;;;;;;;0.90;0.90;;;;;;;;;;5089496;28;20222;-61
2023/04/02 05:03:55;;;;;;;0.80;0.80;;;;;;;;;;5089563;28;20206;-61
2023/04/02 05:06:26;;;;;;;1.30;1.20;;;;;;;;;;5088994;28;20210;-61
2023/04/02 05:08:55;;;;;;;0.83;0.83;;;;;;;;;;5089297;28;20812;-61
2023/04/02 05:11:27;;;;;;;1.20;1.00;;;;;;;;;;5089486;28;20206;-61
2023/04/02 05:13:55;;;;;;;2.10;0.90;;;;;;;;;;5089394;28;20301;-60
2023/04/02 05:16:26;;;;;;;0.80;0.80;;;;;;;;;;5089409;28;20704;-59
2023/04/02 05:18:55;;;;;;;0.80;0.80;;;;;;;;;;5089121;28;20202;-60
2023/04/02 05:21:25;;;;;;;1.20;0.97;;;;;;;;;;5089357;28;20237;-60
2023/04/02 05:23:55;;;;;;;0.90;0.90;;;;;;;;;;5088428;28;20269;-60
2023/04/02 05:26:24;;;;;;;0.93;0.90;;;;;;;;;;5089276;28;20213;-59
2023/04/02 05:28:55;;;;;;;2.60;0.83;;;;;;;;;;5088668;28;20206;-60
2023/04/02 05:31:25;;;;;;;1.23;1.23;;;;;;;;;;5089558;28;20292;-59
2023/04/02 05:33:53;;;;;;;3.67;1.03;;;;;;;;;;5088495;28;20275;-60
2023/04/02 05:36:21;;;;;;;1.63;0.70;;;;;;;;;;5089503;28;20926;-59
2023/04/02 05:38:50;;;;;;;3.60;1.00;;;;;;;;;;5088572;28;20680;-59
2023/04/02 05:41:21;;;;;;;0.80;0.80;;;;;;;;;;5089023;28;20217;-60
2023/04/02 05:43:49;;;;;;;1.40;1.00;;;;;;;;;;5088498;28;20201;-59
2023/04/02 05:46:18;;;;;;;1.20;1.10;;;;;;;;;;5089068;28;20255;-60
2023/04/02 05:48:48;;;;;;;0.60;0.60;;;;;;;;;;5088473;28;20210;-60
2023/04/02 05:51:17;;;;;;;1.50;0.77;;;;;;;;;;5088652;28;20218;-60
2023/04/02 05:53:47;;;;;;;1.27;1.27;;;;;;;;;;5088408;28;20206;-60
2023/04/02 05:56:17;;;;;;;2.57;1.27;;;;;;;;;;5088429;28;20208;-60
2023/04/02 05:58:46;;;;;;;0.67;0.67;;;;;;;;;;5088611;28;20210;-60
2023/04/02 06:01:27;;;;;;;0.80;0.80;;;;;;;;;;5088417;28;20202;-61
2023/04/02 06:03:58;;;;;;;1.00;0.90;;;;;;;;;;5088703;28;20202;-60
2023/04/02 06:06:28;;;;;;;1.13;1.03;;;;;;;;;;5088037;28;20207;-60
2023/04/02 06:08:58;;;;;;;1.03;1.03;;;;;;;;;;5081841;28;20202;-60
2023/04/02 06:11:27;;;;;;;1.10;1.10;;;;;;;;;;5088063;28;20328;-59
2023/04/02 06:13:54;;;;;;;1.27;1.17;;;;;;;;;;5088028;28;20213;-59
2023/04/02 06:16:24;;;;;;;1.13;1.03;;;;;;;;;;5088543;28;20210;-59
2023/04/02 06:18:51;;;;;;;1.20;1.10;;;;;;;;;;5084617;28;20202;-59
2023/04/02 06:21:21;;;;;;;1.27;1.27;;;;;;;;;;5083825;28;20607;-60
2023/04/02 06:23:52;;;;;;;1.80;1.20;;;;;;;;;;5087561;28;20234;-59
2023/04/02 06:26:21;;;;;;;2.10;1.27;;;;;;;;;;5088537;28;20202;-60
2023/04/02 06:28:49;;;;;;;1.07;1.07;;;;;;;;;;5088190;28;20208;-60
2023/04/02 06:31:19;;;;;;;1.33;1.27;;;;;;;;;;5088527;28;20213;-60
2023/04/02 06:33:51;;;;;;;1.30;1.20;;;;;;;;;;5088186;28;20221;-60
2023/04/02 06:36:19;;;;;;;1.90;1.13;;;;;;;;;;5088623;28;20199;-61
2023/04/02 06:38:48;;;;;;;1.20;1.20;;;;;;;;;;5088045;28;20205;-61
2023/04/02 06:41:19;;;;;;;1.40;1.30;;;;;;;;;;5088291;28;20210;-62
2023/04/02 06:43:47;;;;;;;1.30;1.30;;;;;;;;;;5088069;28;20233;-59
2023/04/02 06:46:16;;;;;;;1.10;1.10;;;;;;;;;;5088131;28;20217;-59
2023/04/02 06:48:44;;;;;;;1.27;1.27;;;;;;;;;;5088029;28;20214;-60
2023/04/02 06:51:13;;;;;;;1.80;1.30;;;;;;;;;;5088002;28;20255;-59
2023/04/02 06:53:43;;;;;;;1.17;1.17;;;;;;;;;;5087983;28;20207;-60
2023/04/02 06:56:13;;;;;;;2.67;1.27;;;;;;;;;;5087922;28;20297;-60
2023/04/02 06:58:40;;;;;;;1.33;1.33;;;;;;;;;;5087972;28;20233;-61
2023/04/02 07:01:07;;;;;;;1.20;1.20;;;;;;;;;;5087415;28;20290;-60
2023/04/02 07:03:34;;;;;;;1.90;1.80;;;;;;;;;;5087642;28;20259;-61
2023/04/02 07:06:03;;;;;;;1.67;1.57;;;;;;;;;;5087562;28;20230;-61
2023/04/02 07:08:30;;;;;;;3.80;1.50;;;;;;;;;;5086779;28;20202;-61
2023/04/02 07:10:58;;;;;;;1.40;1.40;;;;;;;;;;5087784;28;20210;-60
2023/04/02 07:13:25;;;;;;;1.43;1.43;;;;;;;;;;5087343;28;20203;-63
2023/04/02 07:15:53;;;;;;;1.50;1.40;;;;;;;;;;5088065;28;20206;-60
2023/04/02 07:18:25;;;;;;;0.60;0.60;;;;;;;;;;5087419;28;20315;-60
2023/04/02 07:20:52;;;;;;;0.20;0.20;;;;;;;;;;5087618;28;20253;-59
2023/04/02 07:23:20;;;;;;;0.00;0.00;;;;;;;;;;5086447;28;20589;-60
2023/04/02 07:25:47;;;;;;;0.00;0.00;;;;;;;;;;5087416;28;20234;-59
2023/04/02 07:28:16;;;;;;;0.00;0.00;;;;;;;;;;5086274;28;20202;-59
2023/04/02 07:30:46;;;;;;;0.00;0.00;;;;;;;;;;5090729;28;20213;-60
2023/04/02 07:33:14;;;;;;;0.00;0.00;;;;;;;;;;5091169;28;20198;-60
2023/04/02 07:35:41;;;;;;;0.10;0.10;;;;;;;;;;5091281;28;20842;-60
2023/04/02 07:38:08;;;;;;;0.00;0.00;;;;;;;;;;5090841;28;20206;-59
2023/04/02 07:40:35;;;;;;;0.00;0.00;;;;;;;;;;5091137;28;20207;-59
2023/04/02 07:43:02;;;;;;;0.00;0.00;;;;;;;;;;5090722;28;20230;-60
2023/04/02 07:45:30;;;;;;;0.00;0.00;;;;;;;;;;5091356;28;20217;-60
2023/04/02 07:47:57;;;;;;;0.10;0.10;;;;;;;;;;5090752;28;20213;-60
2023/04/02 07:50:24;;;;;;;0.00;0.00;;;;;;;;;;5091235;28;20214;-60
2023/04/02 07:52:51;;;;;;;0.20;0.20;;;;;;;;;;5090404;28;20210;-61
2023/04/02 07:55:18;;;;;;;0.57;0.10;;;;;;;;;;5090663;28;20568;-59
2023/04/02 07:57:49;;;;;;;0.00;0.00;;;;;;;;;;5091533;28;20213;-60
2023/04/02 08:00:17;;;;;;;0.13;0.13;;;;;;;;;;5091271;28;20214;-60
2023/04/02 08:02:46;;;;;;;0.00;0.00;;;;;;;;;;5090624;28;20222;-60
2023/04/02 08:05:13;;;;;;;0.00;0.00;;;;;;;;;;5091271;28;20206;-60
2023/04/02 08:07:41;;;;;;;0.00;0.00;;;;;;;;;;5091242;28;20230;-60
2023/04/02 08:10:09;;;;;;;0.10;0.10;;;;;;;;;;5091121;28;20673;-59
2023/04/02 08:12:36;;;;;;;0.10;0.10;;;;;;;;;;5090903;28;20202;-60
2023/04/02 08:15:04;;;;;;;0.10;0.10;;;;;;;;;;5090861;28;20313;-60
2023/04/02 08:17:32;;;;;;;0.00;0.00;;;;;;;;;;5070889;28;20215;-60
2023/04/02 08:20:01;;;;;;;0.10;0.10;;;;;;;;;;5074832;28;20259;-60
2023/04/02 08:22:28;;;;;;;0.00;0.00;;;;;;;;;;5089793;28;20321;-60
2023/04/02 08:24:56;;;;;;;0.00;0.00;;;;;;;;;;5090166;28;20225;-60
2023/04/02 08:27:23;;;;;;;0.10;0.10;;;;;;;;;;5090061;28;20297;-60
2023/04/02 08:29:50;;;;;;;0.10;0.10;;;;;;;;;;5090129;28;20214;-60
2023/04/02 08:32:17;;;;;;;0.00;0.00;;;;;;;;;;5090246;28;20218;-59
2023/04/02 08:34:44;;;;;;;0.10;0.00;;;;;;;;;;5091637;28;20751;-59
2023/04/02 08:37:13;;;;;;;0.00;0.00;;;;;;;;;;5089910;28;20206;-60
2023/04/02 08:39:40;;;;;;;0.07;0.07;;;;;;;;;;5089661;28;20692;-60
2023/04/02 08:42:18;;;;;;;0.10;0.10;;;;;;;;;;5088889;28;20207;-59
2023/04/02 08:44:50;;;;;;;0.10;0.10;;;;;;;;;;5089707;28;20205;-59
2023/04/02 08:47:18;;;;;;;0.00;0.00;;;;;;;;;;5089866;28;20609;-60
2023/04/02 08:49:50;;;;;;;0.00;0.00;;;;;;;;;;5089952;28;20205;-60
2023/04/02 08:52:22;;;;;;;0.00;0.00;;;;;;;;;;5089762;28;20241;-59
2023/04/02 08:54:50;;;;;;;0.10;0.00;;;;;;;;;;5089595;28;20218;-60
2023/04/02 08:57:23;;;;;;;0.00;0.00;;;;;;;;;;5089362;28;20671;-60
2023/04/02 08:59:54;;;;;;;0.00;0.00;;;;;;;;;;5086375;28;20237;-60
2023/04/02 09:02:26;;;;;;;0.10;0.10;;;;;;;;;;5087051;28;20229;-59
2023/04/02 09:04:54;;;;;;;0.20;0.20;;;;;;;;;;5087755;28;20209;-61
2023/04/02 09:07:23;;;;;;;5.33;0.10;;;;;;;;;;5088807;28;20202;-59
2023/04/02 09:09:51;;;;;;;0.00;0.00;;;;;;;;;;5088782;28;20237;-60
2023/04/02 09:12:19;;;;;;;0.07;0.07;;;;;;;;;;5077790;28;20199;-59
2023/04/02 09:14:50;;;;;;;0.10;0.10;;;;;;;;;;5063582;28;20206;-64
2023/04/02 09:17:19;;;;;;;0.00;0.00;;;;;;;;;;5080935;28;20210;-59
2023/04/02 09:19:52;;;;;;;0.10;0.10;;;;;;;;;;5089224;28;20218;-60
2023/04/02 09:22:21;;;;;;;0.00;0.00;;;;;;;;;;5089155;28;20226;-59
2023/04/02 09:24:53;;;;;;;0.10;0.10;;;;;;;;;;5088818;28;20250;-59
2023/04/02 09:27:20;;;;;;;0.10;0.10;;;;;;;;;;5089225;28;20206;-60
2023/04/02 09:29:48;;;;;;;0.00;0.00;;;;;;;;;;5089117;28;20206;-60
2023/04/02 09:32:22;;;;;;;0.07;0.07;;;;;;;;;;5089252;28;20206;-59
2023/04/02 09:34:49;;;;;;;0.53;0.10;;;;;;;;;;5089071;28;20209;-59
2023/04/02 09:37:18;;;;;;;0.20;0.20;;;;;;;;;;5088340;28;20205;-59
2023/04/02 09:39:45;;;;;;;0.20;0.20;;;;;;;;;;5087187;28;20586;-59
2023/04/02 09:42:27;;;;;;;0.00;0.00;;;;;;;;;;5088710;28;20210;-59
2023/04/02 09:45:12;;;;;;;0.10;0.10;;;;;;;;;;5069047;28;20729;-58
2023/04/02 09:47:40;;;;;;;0.03;0.03;;;;;;;;;;5088590;28;20214;-59
2023/04/02 09:50:26;;;;;;;0.23;0.23;;;;;;;;;;5089145;28;20214;-59
2023/04/02 09:52:53;;;;;;;0.00;0.00;;;;;;;;;;5088602;28;20609;-60
2023/04/02 09:55:23;;;;;;;0.10;0.10;;;;;;;;;;5088411;28;20210;-60
2023/04/02 09:57:50;;;;;;;0.20;0.20;;;;;;;;;;5088768;28;20687;-60
2023/04/02 10:00:21;;;;;;;0.10;0.10;;;;;;;;;;5088855;28;20230;-60
2023/04/02 10:03:00;;;;;;;0.17;0.17;;;;;;;;;;5088717;28;20206;-60
2023/04/02 10:05:27;;;;;;;0.10;0.10;;;;;;;;;;5088759;28;20575;-59
2023/04/02 10:07:55;;;;;;;0.30;0.30;;;;;;;;;;5088355;28;20210;-60
2023/04/02 10:10:24;;;;;;;0.20;0.20;;;;;;;;;;5088534;28;20230;-60
2023/04/02 10:12:55;;;;;;;0.00;0.00;;;;;;;;;;5088020;28;20202;-60
2023/04/02 10:15:26;;;;;;;0.17;0.17;;;;;;;;;;5088663;28;20618;-59
2023/04/02 10:17:58;;;;;;;0.10;0.10;;;;;;;;;;5088203;28;20205;-60
2023/04/02 10:20:26;;;;;;;0.20;0.20;;;;;;;;;;5088484;28;20214;-59
2023/04/02 10:22:53;;;;;;;0.30;0.30;;;;;;;;;;5087602;28;20636;-61
2023/04/02 10:25:22;;;;;;;0.30;0.30;;;;;;;;;;5088868;28;20213;-60
2023/04/02 10:27:53;;;;;;;0.10;0.10;;;;;;;;;;5088900;28;20202;-60
2023/04/02 10:30:22;;;;;;;0.60;0.60;;;;;;;;;;5089148;28;20202;-59
2023/04/02 10:32:52;;;;;;;0.00;0.00;;;;;;;;;;5088383;28;20202;-59
2023/04/02 10:35:23;;;;;;;0.17;0.17;;;;;;;;;;5088680;28;20198;-60
2023/04/02 10:38:09;;;;;;;0.27;0.27;;;;;;;;;;5089137;28;20205;-60
2023/04/02 10:40:40;;;;;;;0.30;0.30;;;;;;;;;;5068723;28;20206;-59
2023/04/02 10:43:25;;;;;;;0.30;0.30;;;;;;;;;;5068719;28;20226;-60
2023/04/02 10:45:54;;;;;;;0.30;0.30;;;;;;;;;;5057922;28;20210;-64
2023/04/02 10:48:25;;;;;;;0.20;0.20;;;;;;;;;;5088315;28;20213;-60
2023/04/02 10:50:56;;;;;;;0.30;0.30;;;;;;;;;;5088933;28;20776;-59
2023/04/02 10:53:26;;;;;;;1.80;0.20;;;;;;;;;;5088351;28;20194;-60
2023/04/02 10:55:54;;;;;;;0.20;0.20;;;;;;;;;;5089027;28;20221;-60
2023/04/02 10:58:24;;;;;;;0.20;0.20;;;;;;;;;;5088558;28;20271;-60
2023/04/02 11:00:52;;;;;;;0.40;0.40;;;;;;;;;;5088939;28;20214;-60
2023/04/02 11:03:24;;;;;;;0.10;0.10;;;;;;;;;;5088519;28;20241;-60
2023/04/02 11:05:54;;;;;;;0.27;0.27;;;;;;;;;;5091597;28;20205;-60
2023/04/02 11:08:24;;;;;;;0.17;0.17;;;;;;;;;;5092484;28;20639;-60
2023/04/02 11:10:54;;;;;;;0.20;0.20;;;;;;;;;;5092031;28;20252;-60
2023/04/02 11:13:25;;;;;;;0.10;0.10;;;;;;;;;;5092714;28;20213;-59
2023/04/02 11:15:53;;;;;;;0.30;0.30;;;;;;;;;;5091928;28;20569;-59
2023/04/02 11:18:22;;;;;;;0.20;0.20;;;;;;;;;;5092635;28;20264;-60
2023/04/02 11:21:04;;;;;;;0.30;0.30;;;;;;;;;;5091990;28;20211;-60
2023/04/02 11:23:55;;;;;;;0.13;0.13;;;;;;;;;;5092027;28;20234;-60
2023/04/02 11:26:40;;;;;;;0.20;0.20;;;;;;;;;;5080364;28;20203;-60
2023/04/02 11:29:25;;;;;;;0.23;0.23;;;;;;;;;;5092236;28;20213;-59
2023/04/02 11:32:12;;;;;;;0.10;0.10;;;;;;;;;;5092088;28;20210;-59
2023/04/02 11:34:59;;;;;;;0.83;0.10;;;;;;;;;;5092172;28;20257;-60
2023/04/02 11:37:37;;;;;;;0.17;0.17;;;;;;;;;;5091873;28;20218;-60
2023/04/02 11:40:28;;;;;;;1.57;1.57;;;;;;;;;;5091859;28;20549;-60
2023/04/02 11:42:55;;;;;;;3.37;0.10;;;;;;;;;;5091434;28;20202;-60
2023/04/02 11:45:40;;;;;;;0.30;0.30;;;;;;;;;;5092037;28;20234;-59
2023/04/02 11:48:25;;;;;;;0.20;0.20;;;;;;;;;;5091668;28;20210;-60
2023/04/02 11:50:52;;;;;;;0.33;0.33;;;;;;;;;;5081751;28;20214;-60
2023/04/02 11:53:21;;;;;;;0.20;0.20;;;;;;;;;;5091185;28;20198;-59
2023/04/02 11:56:06;;;;;;;0.30;0.30;;;;;;;;;;5091461;28;20571;-60
2023/04/02 11:58:43;;;;;;;0.27;0.27;;;;;;;;;;5091676;28;20267;-60
2023/04/02 12:01:21;;;;;;;0.10;0.10;;;;;;;;;;5091614;28;20213;-60
2023/04/02 12:04:07;;;;;;;0.10;0.10;;;;;;;;;;5091679;28;20600;-60
2023/04/02 12:06:41;;;;;;;0.30;0.30;;;;;;;;;;5091304;28;20225;-58
2023/04/02 12:09:14;;;;;;;0.57;0.50;;;;;;;;;;5090678;28;20226;-58
2023/04/02 12:11:43;;;;;;;0.10;0.10;;;;;;;;;;5087462;28;20203;-61
2023/04/02 12:14:25;;;;;;;0.33;0.33;;;;;;;;;;5091651;28;20207;-59
2023/04/02 12:16:52;;;;;;;0.10;0.10;;;;;;;;;;5082472;28;20194;-59
2023/04/02 12:19:19;;;;;;;0.50;0.50;;;;;;;;;;5090451;28;20210;-59
2023/04/02 12:21:47;;;;;;;0.50;0.50;;;;;;;;;;5091177;28;20339;-58
2023/04/02 12:24:18;;;;;;;0.37;0.37;;;;;;;;;;5089733;28;20310;-66
2023/04/02 12:26:46;;;;;;;0.23;0.23;;;;;;;;;;5091109;28;20206;-63
2023/04/02 12:29:32;;;;;;;0.10;0.10;;;;;;;;;;5090298;28;20198;-60
2023/04/02 12:31:59;;;;;;;0.33;0.33;;;;;;;;;;5090743;28;20214;-60
2023/04/02 12:34:28;;;;;;;0.40;0.40;;;;;;;;;;5089233;28;20205;-60
2023/04/02 12:36:58;;;;;;;0.27;0.27;;;;;;;;;;5090336;28;20194;-60
2023/04/02 12:39:25;;;;;;;0.60;0.60;;;;;;;;;;5089868;28;20240;-60
2023/04/02 12:41:54;;;;;;;0.40;0.40;;;;;;;;;;5089631;28;20211;-59
2023/04/02 12:44:22;;;;;;;0.20;0.20;;;;;;;;;;5089192;28;20279;-59
2023/04/02 12:46:51;;;;;;;0.40;0.40;;;;;;;;;;5090015;28;21194;-60
2023/04/02 12:49:23;;;;;;;0.07;0.07;;;;;;;;;;5090099;28;20208;-58
2023/04/02 12:51:51;;;;;;;0.40;0.40;;;;;;;;;;5090095;28;20209;-59
2023/04/02 12:54:20;;;;;;;0.27;0.27;;;;;;;;;;5089654;28;20375;-60
2023/04/02 12:56:47;;;;;;;0.57;0.40;;;;;;;;;;5089554;28;20256;-59
2023/04/02 12:59:27;;;;;;;0.10;0.10;;;;;;;;;;5089905;28;20202;-59
2023/04/02 13:01:58;;;;;;;0.43;0.43;;;;;;;;;;5087309;28;20580;-60
2023/04/02 13:04:25;;;;;;;0.60;0.10;;;;;;;;;;5078501;28;20755;-60
2023/04/02 13:06:54;;;;;;;0.40;0.40;;;;;;;;;;5071917;28;20670;-60
2023/04/02 13:09:31;;;;;;;0.33;0.33;;;;;;;;;;5086856;28;20210;-61
2023/04/02 13:11:59;;;;;;;0.10;0.10;;;;;;;;;;5088748;28;20225;-61
2023/04/02 13:14:27;;;;;;;0.83;0.77;;;;;;;;;;5088673;28;20212;-60
2023/04/02 13:16:55;;;;;;;0.30;0.30;;;;;;;;;;5087250;28;20214;-60
2023/04/02 13:19:29;;;;;;;2.63;0.60;;;;;;;;;;5089166;28;20213;-61
2023/04/02 13:21:57;;;;;;;0.23;0.23;;;;;;;;;;5069277;28;20237;-60
2023/04/02 13:24:25;;;;;;;1.37;0.23;;;;;;;;;;5089079;28;20226;-60
2023/04/02 13:26:55;;;;;;;0.00;0.00;;;;;;;;;;5088104;28;20214;-60
2023/04/02 13:29:24;;;;;;;0.80;0.57;;;;;;;;;;5088714;28;20207;-60
2023/04/02 13:31:53;;;;;;;0.23;0.23;;;;;;;;;;5089343;28;20618;-61
2023/04/02 13:34:20;;;;;;;0.37;0.37;;;;;;;;;;5088731;28;20202;-61
2023/04/02 13:36:47;;;;;;;0.37;0.37;;;;;;;;;;5089179;28;20210;-61
2023/04/02 13:39:14;;;;;;;0.50;0.50;;;;;;;;;;5089501;28;20221;-61
2023/04/02 13:41:42;;;;;;;0.50;0.50;;;;;;;;;;5087782;28;20332;-61
2023/04/02 13:44:18;;;;;;;1.50;0.67;;;;;;;;;;5089072;28;20703;-61
2023/04/02 13:46:45;;;;;;;0.40;0.40;;;;;;;;;;5088973;28;20213;-61
2023/04/02 13:49:13;;;;;;;0.30;0.30;;;;;;;;;;5088679;28;20217;-61
2023/04/02 13:51:43;;;;;;;0.40;0.40;;;;;;;;;;5088524;28;20589;-61
2023/04/02 13:54:13;;;;;;;0.97;0.40;;;;;;;;;;5088929;28;20726;-61
2023/04/02 13:56:40;;;;;;;0.57;0.57;;;;;;;;;;5086922;28;20201;-60
2023/04/02 13:59:07;;;;;;;0.20;0.20;;;;;;;;;;5087599;28;20206;-61
2023/04/02 14:01:34;;;;;;;0.73;0.73;;;;;;;;;;5083427;28;20225;-61
2023/04/02 14:04:01;;;;;;;0.60;0.60;;;;;;;;;;5083321;28;20206;-60
2023/04/02 14:06:37;;;;;;;1.70;0.77;;;;;;;;;;5088170;28;20206;-61
2023/04/02 14:09:10;;;;;;;0.53;0.53;;;;;;;;;;5086563;28;20631;-59
2023/04/02 14:11:43;;;;;;;2.47;0.73;;;;;;;;;;5087909;28;20205;-60
2023/04/02 14:14:17;;;;;;;0.80;0.80;;;;;;;;;;5085457;28;20328;-63
2023/04/02 14:16:57;;;;;;;9.73;0.77;;;;;;;;;;5085501;28;20213;-60
2023/04/02 14:19:31;;;;;;;0.57;0.57;;;;;;;;;;5085587;28;20221;-59
2023/04/02 14:22:04;;;;;;;4.07;0.83;;;;;;;;;;5068021;28;20222;-59
2023/04/02 14:24:34;;;;;;;1.80;0.73;;;;;;;;;;5068141;28;20231;-59
2023/04/02 14:27:06;;;;;;;0.80;0.80;;;;;;;;;;5068672;28;20243;-60
2023/04/02 14:29:37;;;;;;;0.93;0.80;;;;;;;;;;5088729;28;20206;-60
2023/04/02 14:32:06;;;;;;;0.80;0.80;;;;;;;;;;5089200;28;20209;-60
2023/04/02 14:34:36;;;;;;;0.97;0.97;;;;;;;;;;5089043;28;20209;-61
2023/04/02 14:37:09;;;;;;;0.20;0.20;;;;;;;;;;5088774;28;20580;-59
2023/04/02 14:39:40;;;;;;;0.13;0.13;;;;;;;;;;5089850;28;20210;-60
2023/04/02 14:42:13;;;;;;;0.77;0.77;;;;;;;;;;5092856;28;20206;-61
2023/04/02 14:44:42;;;;;;;1.20;1.20;;;;;;;;;;5092617;28;20765;-61
2023/04/02 14:47:14;;;;;;;0.43;0.43;;;;;;;;;;5092934;28;20221;-60
2023/04/02 14:49:43;;;;;;;3.90;1.03;;;;;;;;;;5092869;28;20602;-60
2023/04/02 14:52:14;;;;;;;0.37;0.37;;;;;;;;;;5092587;28;20673;-59
2023/04/02 14:54:49;;;;;;;0.70;0.70;;;;;;;;;;5092101;28;20233;-60
2023/04/02 14:57:20;;;;;;;0.30;0.30;;;;;;;;;;5070750;28;20240;-60
2023/04/02 14:59:52;;;;;;;4.60;2.03;;;;;;;;;;5072021;28;20566;-61
2023/04/02 15:02:22;;;;;;;0.40;0.40;;;;;;;;;;5070834;28;20219;-60
2023/04/02 15:04:53;;;;;;;0.90;0.90;;;;;;;;;;5070228;28;20234;-60